Terminal Aerodrome Forecast
Issued by NWS Louisville, KY

Home | Current Version | Previous Version | Text Only | Print | Product List | Glossary On
Versions: 1 2 3 4 5 6 7 8 9 10 11 12 13
000
FTUS43 KLMK 261729
TAFBWG
TAF
KBWG 261729Z 2618/2718 17012G20KT P6SM FEW200
     FM270200 17013KT P6SM BKN250 WS020/17050KT
     FM270800 19013G20KT 6SM -SHRA BKN090 WS020/19050KT
     FM270900 19013KT 5SM -SHRA VCTS OVC015CB
     FM271200 23011G19KT P6SM BKN015
     FM271700 25009KT P6SM BKN025=

USA.gov is the U.S. government's official web portal to all federal, state and local government web resources and services.